Time;durP1;ratioP1;P1;durP2;ratioP2;P2;SDS_P1;SDS_P2;PMS_P1;PMS_P2;Temp;Humidity;BMP_temperature;BMP_pressure;BME280_temperature;BME280_humidity;BME280_pressure;Samples;Min_cycle;Max_cycle;Signal;HPM_P1;HPM_P2
2023/01/08 00:00:51;;;;;;;;;;;9.70;99.90;;;;;;5034516;28;20576;-62
2023/01/08 00:03:17;;;;;;;;;;;9.80;99.90;;;;;;5034938;28;20316;-62
2023/01/08 00:05:44;;;;;;;;;;;9.70;99.90;;;;;;5034932;28;19921;-63
2023/01/08 00:08:11;;;;;;;;;;;9.70;99.90;;;;;;5034694;28;19925;-63
2023/01/08 00:10:38;;;;;;;;;;;9.70;99.90;;;;;;5034565;28;20383;-62
2023/01/08 00:13:05;;;;;;;;;;;9.70;99.90;;;;;;5034709;28;19925;-62
2023/01/08 00:15:33;;;;;;;;;;;9.70;99.90;;;;;;5034430;28;20347;-60
2023/01/08 00:18:00;;;;;;;;;;;9.70;99.90;;;;;;5034557;28;19944;-61
2023/01/08 00:20:27;;;;;;;;;;;9.60;99.90;;;;;;5034028;28;20269;-63
2023/01/08 00:22:54;;;;;;;;;;;9.60;99.90;;;;;;5040376;28;20449;-63
2023/01/08 00:25:20;;;;;;;;;;;9.60;99.90;;;;;;5045867;28;19921;-64
2023/01/08 00:27:47;;;;;;;;;;;9.60;99.90;;;;;;5054005;28;19921;-62
2023/01/08 00:30:13;;;;;;;;;;;9.60;99.90;;;;;;5045002;28;19928;-62
2023/01/08 00:32:41;;;;;;;;;;;9.60;99.90;;;;;;5033707;28;20433;-62
2023/01/08 00:35:08;;;;;;;;;;;9.50;99.90;;;;;;5034206;28;19921;-61
2023/01/08 00:37:35;;;;;;;;;;;9.60;99.90;;;;;;5033908;28;19947;-62
2023/01/08 00:40:01;;;;;;;;;;;9.50;99.90;;;;;;5034064;28;20279;-62
2023/01/08 00:42:28;;;;;;;;;;;9.50;99.90;;;;;;5034096;28;19921;-62
2023/01/08 00:44:54;;;;;;;;;;;9.50;99.90;;;;;;5034267;28;19979;-61
2023/01/08 00:47:21;;;;;;;;;;;9.50;99.90;;;;;;5034122;28;19921;-66
2023/01/08 00:49:48;;;;;;;;;;;9.50;99.90;;;;;;5034051;28;19921;-66
2023/01/08 00:52:15;;;;;;;;;;;9.60;99.90;;;;;;5034713;28;19921;-62
2023/01/08 00:54:42;;;;;;;;;;;9.60;99.90;;;;;;5045853;28;19995;-63
2023/01/08 00:57:08;;;;;;;;;;;9.60;99.90;;;;;;5053506;28;19920;-63
2023/01/08 00:59:35;;;;;;;;;;;9.60;99.90;;;;;;5025507;28;19921;-60
2023/01/08 01:02:01;;;;;;;;;;;9.60;99.90;;;;;;5042148;28;20380;-61
2023/01/08 01:04:28;;;;;;;;;;;9.60;99.90;;;;;;5033882;28;19921;-58
2023/01/08 01:06:56;;;;;;;;;;;9.60;99.90;;;;;;5033867;28;19925;-59
2023/01/08 01:09:22;;;;;;;;;;;9.60;99.90;;;;;;5033635;28;19928;-57
2023/01/08 01:11:49;;;;;;;;;;;9.60;99.90;;;;;;5033550;28;20288;-58
2023/01/08 01:14:16;;;;;;;;;;;9.60;99.90;;;;;;5033763;28;20276;-59
2023/01/08 01:16:43;;;;;;;;;;;9.60;99.90;;;;;;5033439;28;20368;-53
2023/01/08 01:19:09;;;;;;;;;;;9.60;99.90;;;;;;5033541;28;19967;-57
2023/01/08 01:21:36;;;;;;;;;;;9.60;99.90;;;;;;5033641;28;20303;-61
2023/01/08 01:24:05;;;;;;;;;;;9.60;99.90;;;;;;5041648;28;19968;-58
2023/01/08 01:26:32;;;;;;;;;;;9.60;99.90;;;;;;5052689;28;19925;-58
2023/01/08 01:28:59;;;;;;;;;;;9.60;99.90;;;;;;5053283;28;19921;-60
2023/01/08 01:31:26;;;;;;;;;;;9.60;99.90;;;;;;5053251;28;19961;-58
2023/01/08 01:33:53;;;;;;;;;;;9.60;99.90;;;;;;5053399;28;19921;-60
2023/01/08 01:36:22;;;;;;;;;;;9.60;99.90;;;;;;5052840;28;19967;-59
2023/01/08 01:38:49;;;;;;;;;;;9.60;99.90;;;;;;5053030;28;19966;-60
2023/01/08 01:41:23;;;;;;;;;;;9.60;99.90;;;;;;5052856;28;19921;-61
2023/01/08 01:43:49;;;;;;;;;;;9.60;99.90;;;;;;5053069;28;19924;-60
2023/01/08 01:46:19;;;;;;;;;;;9.60;99.90;;;;;;5052747;28;20279;-58
2023/01/08 01:48:47;;;;;;;;;;;9.50;99.90;;;;;;5053152;28;20291;-60
2023/01/08 01:51:14;;;;;;;;;;;9.60;99.90;;;;;;5052716;28;19921;-59
2023/01/08 01:53:41;;;;;;;;;;;9.60;99.90;;;;;;5044783;28;19920;-60
2023/01/08 01:56:08;;;;;;;;;;;9.60;99.90;;;;;;5036292;28;20008;-60
2023/01/08 01:58:36;;;;;;;;;;;9.60;99.90;;;;;;5033026;28;19925;-60
2023/01/08 02:01:04;;;;;;;;;;;9.60;99.90;;;;;;5032652;28;19967;-60
2023/01/08 02:03:32;;;;;;;;;;;9.60;99.90;;;;;;5032869;28;20339;-60
2023/01/08 02:06:01;;;;;;;;;;;9.60;99.90;;;;;;5032404;28;19921;-63
2023/01/08 02:08:32;;;;;;;;;;;9.70;99.90;;;;;;5032812;28;20027;-61
2023/01/08 02:11:03;;;;;;;;;;;9.70;99.90;;;;;;5032681;28;19975;-60
2023/01/08 02:13:33;;;;;;;;;;;9.70;99.90;;;;;;5032712;28;19920;-61
2023/01/08 02:16:06;;;;;;;;;;;9.70;99.90;;;;;;5032585;28;19963;-61
2023/01/08 02:18:35;;;;;;;;;;;9.70;99.90;;;;;;5032566;28;19928;-59
2023/01/08 02:21:04;;;;;;;;;;;9.60;99.90;;;;;;5032413;28;19983;-59
2023/01/08 02:23:37;;;;;;;;;;;9.60;99.90;;;;;;5040807;28;19928;-56
2023/01/08 02:26:15;;;;;;;;;;;9.60;99.90;;;;;;5048187;28;19936;-61
2023/01/08 02:28:44;;;;;;;;;;;9.60;99.90;;;;;;5052265;28;19925;-59
2023/01/08 02:31:11;;;;;;;;;;;9.60;99.90;;;;;;5052547;28;19921;-61
2023/01/08 02:33:38;;;;;;;;;;;9.50;99.90;;;;;;5052201;28;19924;-61
2023/01/08 02:36:17;;;;;;;;;;;9.50;99.90;;;;;;5052248;28;19924;-60
2023/01/08 02:38:47;;;;;;;;;;;9.50;99.90;;;;;;5052343;28;19933;-60
2023/01/08 02:41:17;;;;;;;;;;;9.50;99.90;;;;;;5052322;28;20428;-61
2023/01/08 02:43:45;;;;;;;;;;;9.50;99.90;;;;;;5052527;28;19921;-60
2023/01/08 02:46:13;;;;;;;;;;;9.50;99.90;;;;;;5052227;28;19925;-60
2023/01/08 02:48:43;;;;;;;;;;;9.50;99.90;;;;;;5052408;28;19921;-58
2023/01/08 02:51:11;;;;;;;;;;;9.40;99.90;;;;;;5051983;28;20387;-59
2023/01/08 02:53:40;;;;;;;;;;;9.40;99.90;;;;;;5043848;28;19979;-62
2023/01/08 02:56:08;;;;;;;;;;;9.40;99.90;;;;;;5039815;28;19925;-61
2023/01/08 02:58:37;;;;;;;;;;;9.40;99.90;;;;;;5036181;28;19921;-60
2023/01/08 03:01:06;;;;;;;;;;;9.40;99.90;;;;;;5036341;28;19921;-58
2023/01/08 03:03:33;;;;;;;;;;;9.40;99.90;;;;;;5036171;28;20434;-56
2023/01/08 03:06:02;;;;;;;;;;;9.30;99.90;;;;;;5035867;28;19921;-58
2023/01/08 03:08:29;;;;;;;;;;;9.30;99.90;;;;;;5035972;28;19924;-59
2023/01/08 03:11:00;;;;;;;;;;;9.30;99.90;;;;;;5036207;28;19921;-57
2023/01/08 03:13:30;;;;;;;;;;;9.30;99.90;;;;;;5036167;28;19986;-60
2023/01/08 03:16:00;;;;;;;;;;;9.30;99.90;;;;;;5035791;28;19926;-59
2023/01/08 03:18:32;;;;;;;;;;;9.40;99.90;;;;;;5035812;28;19975;-60
2023/01/08 03:21:00;;;;;;;;;;;9.30;99.90;;;;;;5035436;28;19925;-56
2023/01/08 03:23:27;;;;;;;;;;;9.30;99.90;;;;;;5044180;28;19978;-54
2023/01/08 03:25:54;;;;;;;;;;;9.30;99.90;;;;;;5049828;28;19920;-56
2023/01/08 03:28:22;;;;;;;;;;;9.30;99.90;;;;;;5055659;28;20350;-60
2023/01/08 03:30:49;;;;;;;;;;;9.30;99.90;;;;;;5055654;28;19967;-57
2023/01/08 03:33:17;;;;;;;;;;;9.30;99.90;;;;;;5055370;28;20362;-57
2023/01/08 03:35:46;;;;;;;;;;;9.30;99.90;;;;;;5055690;28;19974;-59
2023/01/08 03:38:14;;;;;;;;;;;9.30;99.90;;;;;;5055173;28;20350;-57
2023/01/08 03:40:42;;;;;;;;;;;9.30;99.90;;;;;;5055672;28;19921;-58
2023/01/08 03:43:09;;;;;;;;;;;9.30;99.90;;;;;;5055384;28;19982;-55
2023/01/08 03:45:36;;;;;;;;;;;9.30;99.90;;;;;;5055216;28;19921;-60
2023/01/08 03:48:04;;;;;;;;;;;9.20;99.90;;;;;;5055246;28;19924;-56
2023/01/08 03:50:32;;;;;;;;;;;9.20;99.90;;;;;;5055605;28;19920;-56
2023/01/08 03:52:58;;;;;;;;;;;9.20;99.90;;;;;;5048414;28;19991;-60
2023/01/08 03:55:25;;;;;;;;;;;9.20;99.90;;;;;;5043721;28;19921;-61
2023/01/08 03:57:51;;;;;;;;;;;9.20;99.90;;;;;;5035123;28;19968;-61
2023/01/08 04:00:18;;;;;;;;;;;9.20;99.90;;;;;;5034881;28;20442;-61
2023/01/08 04:02:45;;;;;;;;;;;9.20;99.90;;;;;;5035189;28;19925;-60
2023/01/08 04:05:11;;;;;;;;;;;9.20;99.90;;;;;;5034321;28;19975;-61
2023/01/08 04:07:39;;;;;;;;;;;9.20;99.90;;;;;;5034411;28;19925;-62
2023/01/08 04:10:06;;;;;;;;;;;9.20;99.90;;;;;;5034921;28;19921;-61
2023/01/08 04:12:33;;;;;;;;;;;9.20;99.90;;;;;;5034743;28;19921;-60
2023/01/08 04:14:59;;;;;;;;;;;9.20;99.90;;;;;;5034809;28;20343;-60
2023/01/08 04:17:25;;;;;;;;;;;9.20;99.90;;;;;;5034796;28;19921;-61
2023/01/08 04:19:52;;;;;;;;;;;9.20;99.90;;;;;;5034492;28;19924;-61
2023/01/08 04:22:19;;;;;;;;;;;9.20;99.90;;;;;;5035682;28;19925;-61
2023/01/08 04:24:46;;;;;;;;;;;9.20;99.90;;;;;;5046463;28;19921;-61
2023/01/08 04:27:13;;;;;;;;;;;9.20;99.90;;;;;;5054710;28;19966;-61
2023/01/08 04:29:39;;;;;;;;;;;9.20;99.90;;;;;;5054361;28;19952;-59
2023/01/08 04:32:06;;;;;;;;;;;9.20;99.90;;;;;;5055033;28;19924;-57
2023/01/08 04:34:32;;;;;;;;;;;9.20;99.90;;;;;;5054760;28;19921;-61
2023/01/08 04:36:59;;;;;;;;;;;9.20;99.90;;;;;;5054398;28;19921;-61
2023/01/08 04:39:26;;;;;;;;;;;9.30;99.90;;;;;;5054128;28;20363;-61
2023/01/08 04:41:53;;;;;;;;;;;9.30;99.90;;;;;;5054523;28;19925;-60
2023/01/08 04:44:20;;;;;;;;;;;9.20;99.90;;;;;;5054409;28;19921;-61
2023/01/08 04:46:46;;;;;;;;;;;9.30;99.90;;;;;;5054065;28;19924;-60
2023/01/08 04:49:13;;;;;;;;;;;9.20;99.90;;;;;;5054321;28;19925;-63
2023/01/08 04:51:39;;;;;;;;;;;9.20;99.90;;;;;;5054121;28;19975;-62
2023/01/08 04:54:06;;;;;;;;;;;9.20;99.90;;;;;;5045781;28;19920;-60
2023/01/08 04:56:32;;;;;;;;;;;9.20;99.90;;;;;;5033905;28;19921;-62
2023/01/08 04:59:00;;;;;;;;;;;9.20;99.90;;;;;;5034056;28;20469;-59
2023/01/08 05:01:27;;;;;;;;;;;9.20;99.90;;;;;;5034067;28;19925;-61
2023/01/08 05:03:54;;;;;;;;;;;9.20;99.90;;;;;;5033845;28;19925;-60
2023/01/08 05:06:21;;;;;;;;;;;9.10;99.90;;;;;;5033590;28;19921;-59
2023/01/08 05:08:47;;;;;;;;;;;9.10;99.90;;;;;;5033870;28;19924;-62
2023/01/08 05:11:14;;;;;;;;;;;9.10;99.90;;;;;;5033740;28;19967;-61
2023/01/08 05:13:41;;;;;;;;;;;9.10;99.90;;;;;;5033942;28;19967;-61
2023/01/08 05:16:09;;;;;;;;;;;9.00;99.90;;;;;;5032559;28;20499;-58
2023/01/08 05:18:35;;;;;;;;;;;9.10;99.90;;;;;;5033153;28;19921;-59
2023/01/08 05:21:02;;;;;;;;;;;9.00;99.90;;;;;;5033469;28;20343;-59
2023/01/08 05:23:29;;;;;;;;;;;9.00;99.90;;;;;;5041884;28;19921;-58
2023/01/08 05:25:56;;;;;;;;;;;9.00;99.90;;;;;;5048063;28;19924;-61
2023/01/08 05:28:23;;;;;;;;;;;9.00;99.90;;;;;;5053621;28;19966;-59
2023/01/08 05:30:49;;;;;;;;;;;9.00;99.90;;;;;;5053572;28;19928;-60
2023/01/08 05:33:17;;;;;;;;;;;9.10;99.90;;;;;;5053152;28;19966;-58
2023/01/08 05:35:44;;;;;;;;;;;9.10;99.90;;;;;;5053263;28;20338;-56
2023/01/08 05:38:10;;;;;;;;;;;9.10;99.90;;;;;;5052856;28;19935;-59
2023/01/08 05:40:37;;;;;;;;;;;9.10;99.90;;;;;;5052954;28;19928;-60
2023/01/08 05:43:04;;;;;;;;;;;9.10;99.90;;;;;;5053168;28;19990;-57
2023/01/08 05:45:31;;;;;;;;;;;9.10;99.90;;;;;;5053070;28;19924;-58
2023/01/08 05:47:57;;;;;;;;;;;9.10;99.90;;;;;;5052809;28;19924;-60
2023/01/08 05:50:25;;;;;;;;;;;9.10;99.90;;;;;;5052821;28;20318;-59
2023/01/08 05:52:52;;;;;;;;;;;9.10;99.90;;;;;;5047004;28;19921;-58
2023/01/08 05:55:19;;;;;;;;;;;9.20;99.90;;;;;;5040997;28;19929;-59
2023/01/08 05:57:46;;;;;;;;;;;9.20;99.90;;;;;;5032617;28;19967;-60
2023/01/08 06:00:13;;;;;;;;;;;9.10;99.90;;;;;;5032751;28;19925;-58
2023/01/08 06:02:40;;;;;;;;;;;9.10;99.90;;;;;;5032973;28;19975;-60
2023/01/08 06:05:06;;;;;;;;;;;9.10;99.90;;;;;;5032754;28;19959;-61
2023/01/08 06:07:34;;;;;;;;;;;9.10;99.90;;;;;;5032234;28;19921;-61
2023/01/08 06:10:01;;;;;;;;;;;9.10;99.90;;;;;;5032771;28;19995;-59
2023/01/08 06:12:27;;;;;;;;;;;9.10;99.90;;;;;;5032864;28;19925;-61
2023/01/08 06:14:53;;;;;;;;;;;9.10;99.90;;;;;;5032681;28;19975;-61
2023/01/08 06:17:20;;;;;;;;;;;9.10;99.90;;;;;;5032466;28;19921;-60
2023/01/08 06:19:47;;;;;;;;;;;9.10;99.90;;;;;;5032409;28;19925;-60
2023/01/08 06:22:13;;;;;;;;;;;9.10;99.90;;;;;;5033091;28;19924;-61
2023/01/08 06:24:41;;;;;;;;;;;9.20;99.90;;;;;;5044272;28;19920;-60
2023/01/08 06:27:07;;;;;;;;;;;9.10;99.90;;;;;;5052041;28;19920;-60
2023/01/08 06:29:34;;;;;;;;;;;9.10;99.90;;;;;;5051829;28;19970;-60
2023/01/08 06:32:00;;;;;;;;;;;9.10;99.90;;;;;;5052252;28;19920;-60
2023/01/08 06:34:27;;;;;;;;;;;9.10;99.90;;;;;;5052200;28;20383;-60
2023/01/08 06:36:53;;;;;;;;;;;9.10;99.90;;;;;;5052381;28;19947;-61
2023/01/08 06:39:20;;;;;;;;;;;9.20;99.90;;;;;;5052363;28;19921;-61
2023/01/08 06:41:48;;;;;;;;;;;9.20;99.90;;;;;;5052014;28;19924;-61
2023/01/08 06:44:14;;;;;;;;;;;9.20;99.90;;;;;;5052380;28;20378;-61
2023/01/08 06:46:40;;;;;;;;;;;9.10;99.90;;;;;;5051968;28;20346;-61
2023/01/08 06:49:07;;;;;;;;;;;9.10;99.90;;;;;;5051892;28;19924;-58
2023/01/08 06:51:34;;;;;;;;;;;9.10;99.90;;;;;;5052356;28;20295;-61
2023/01/08 06:54:01;;;;;;;;;;;9.10;99.90;;;;;;5043987;28;19920;-60
2023/01/08 06:56:27;;;;;;;;;;;9.10;99.90;;;;;;5033050;28;19925;-61
2023/01/08 06:58:55;;;;;;;;;;;9.10;99.90;;;;;;5032056;28;20005;-59
2023/01/08 07:01:22;;;;;;;;;;;9.10;99.90;;;;;;5031687;28;19972;-61
2023/01/08 07:03:49;;;;;;;;;;;9.10;99.90;;;;;;5032066;28;19921;-60
2023/01/08 07:06:16;;;;;;;;;;;9.10;99.90;;;;;;5032069;28;19975;-59
2023/01/08 07:08:43;;;;;;;;;;;9.10;99.90;;;;;;5032181;28;19921;-58
2023/01/08 07:11:09;;;;;;;;;;;9.10;99.90;;;;;;5032222;28;19963;-60
2023/01/08 07:13:36;;;;;;;;;;;9.10;99.90;;;;;;5031939;28;20376;-62
2023/01/08 07:16:06;;;;;;;;;;;9.10;99.90;;;;;;5031884;28;20343;-61
2023/01/08 07:18:33;;;;;;;;;;;9.00;99.90;;;;;;5032347;28;19921;-58
2023/01/08 07:21:00;;;;;;;;;;;8.90;99.90;;;;;;5031903;28;19928;-58
2023/01/08 07:23:26;;;;;;;;;;;8.70;99.90;;;;;;5040221;28;20353;-59
2023/01/08 07:25:53;;;;;;;;;;;8.60;99.90;;;;;;5046407;28;19954;-60
2023/01/08 07:28:19;;;;;;;;;;;8.40;99.90;;;;;;5051877;28;19974;-60
2023/01/08 07:30:46;;;;;;;;;;;8.30;99.90;;;;;;5051421;28;20288;-56
2023/01/08 07:33:13;;;;;;;;;;;8.20;99.90;;;;;;5051997;28;19974;-59
2023/01/08 07:35:40;;;;;;;;;;;8.20;99.90;;;;;;5052015;28;19925;-60
2023/01/08 07:38:06;;;;;;;;;;;8.10;99.90;;;;;;5051148;28;19975;-55
2023/01/08 07:40:33;;;;;;;;;;;8.00;99.90;;;;;;5053417;28;19974;-62
2023/01/08 07:43:01;;;;;;;;;;;7.90;99.90;;;;;;5055575;28;19921;-62
2023/01/08 07:45:27;;;;;;;;;;;7.80;99.90;;;;;;5055094;28;20285;-58
2023/01/08 07:47:56;;;;;;;;;;;7.80;99.90;;;;;;5055226;28;20329;-59
2023/01/08 07:50:23;;;;;;;;;;;7.70;99.90;;;;;;5055270;28;19925;-56
2023/01/08 07:52:50;;;;;;;;;;;7.70;99.90;;;;;;5049556;28;19921;-57
2023/01/08 07:55:16;;;;;;;;;;;7.70;99.90;;;;;;5043500;28;19967;-58
2023/01/08 07:57:43;;;;;;;;;;;7.60;99.90;;;;;;5035001;28;19967;-62
2023/01/08 08:00:10;;;;;;;;;;;7.60;99.90;;;;;;5035209;28;19921;-58
2023/01/08 08:02:37;;;;;;;;;;;7.60;99.90;;;;;;5035151;28;19967;-59
2023/01/08 08:05:03;;;;;;;;;;;7.60;99.90;;;;;;5035309;28;19925;-60
2023/01/08 08:07:31;;;;;;;;;;;7.60;99.90;;;;;;5034706;28;19921;-61
2023/01/08 08:09:58;;;;;;;;;;;7.60;99.90;;;;;;5034650;28;19925;-61
2023/01/08 08:12:24;;;;;;;;;;;7.60;99.90;;;;;;5034935;28;19928;-60
2023/01/08 08:14:51;;;;;;;;;;;7.50;99.90;;;;;;5035109;28;19924;-59
2023/01/08 08:17:18;;;;;;;;;;;7.50;99.90;;;;;;5034817;28;20342;-59
2023/01/08 08:19:44;;;;;;;;;;;7.50;99.90;;;;;;5034778;28;19921;-60
2023/01/08 08:22:10;;;;;;;;;;;7.50;99.90;;;;;;5034713;28;19967;-62
2023/01/08 08:24:38;;;;;;;;;;;7.50;99.90;;;;;;5046099;28;19975;-61
2023/01/08 08:27:05;;;;;;;;;;;7.50;99.90;;;;;;5054187;28;20361;-59
2023/01/08 08:29:31;;;;;;;;;;;7.50;99.90;;;;;;5054035;28;19920;-58
2023/01/08 08:31:58;;;;;;;;;;;7.50;99.90;;;;;;5054215;28;19924;-59
2023/01/08 08:34:25;;;;;;;;;;;7.50;99.90;;;;;;5054249;28;19974;-61
2023/01/08 08:36:51;;;;;;;;;;;7.50;99.90;;;;;;5054232;28;19920;-61
2023/01/08 08:39:18;;;;;;;;;;;7.50;99.90;;;;;;5053979;28;19927;-59
2023/01/08 08:41:45;;;;;;;;;;;7.50;99.90;;;;;;5054236;28;19921;-58
2023/01/08 08:44:12;;;;;;;;;;;7.50;99.90;;;;;;5054467;28;19928;-57
2023/01/08 08:46:38;;;;;;;;;;;7.50;99.90;;;;;;5054100;28;19925;-57
2023/01/08 08:49:05;;;;;;;;;;;7.50;99.90;;;;;;5054006;28;19951;-60
2023/01/08 08:51:31;;;;;;;;;;;7.50;99.90;;;;;;5053061;28;20045;-61
2023/01/08 08:53:58;;;;;;;;;;;7.40;99.90;;;;;;5045086;28;20136;-59
2023/01/08 08:56:24;;;;;;;;;;;7.40;99.90;;;;;;5034806;28;19991;-59
2023/01/08 08:58:52;;;;;;;;;;;7.30;99.90;;;;;;5034006;28;19921;-60
2023/01/08 09:01:19;;;;;;;;;;;7.30;99.90;;;;;;5034000;28;19947;-59
2023/01/08 09:03:45;;;;;;;;;;;7.30;99.90;;;;;;5033799;28;19921;-59
2023/01/08 09:06:12;;;;;;;;;;;7.40;99.90;;;;;;5033785;28;20331;-59
2023/01/08 09:08:39;;;;;;;;;;;7.40;99.90;;;;;;5033889;28;19921;-59
2023/01/08 09:11:05;;;;;;;;;;;7.40;99.90;;;;;;5033622;28;20388;-57
2023/01/08 09:13:32;;;;;;;;;;;7.40;99.90;;;;;;5033650;28;19924;-58
2023/01/08 09:16:00;;;;;;;;;;;7.40;99.90;;;;;;5033624;28;19929;-59
2023/01/08 09:18:26;;;;;;;;;;;7.50;99.90;;;;;;5033353;28;19921;-57
2023/01/08 09:20:53;;;;;;;;;;;7.50;99.90;;;;;;5033362;28;19921;-59
2023/01/08 09:23:19;;;;;;;;;;;7.50;99.90;;;;;;5033394;28;19967;-61
2023/01/08 09:25:46;;;;;;;;;;;7.50;99.90;;;;;;5033267;28;19925;-61
2023/01/08 09:28:12;;;;;;;;;;;7.60;99.90;;;;;;5033390;28;19925;-60
2023/01/08 09:30:39;;;;;;;;;;;7.70;99.90;;;;;;5032923;28;19921;-59
2023/01/08 09:33:07;;;;;;;;;;;7.70;99.90;;;;;;5033221;28;20376;-62
2023/01/08 09:35:34;;;;;;;;;;;7.80;99.90;;;;;;5033459;28;19924;-59
2023/01/08 09:38:00;;;;;;;;;;;7.90;99.90;;;;;;5032909;28;19924;-60
2023/01/08 09:40:31;;;;;;;;;;;8.00;99.90;;;;;;5033234;28;19921;-60
2023/01/08 09:42:58;;;;;;;;;;;8.00;99.90;;;;;;5033389;28;19924;-56
2023/01/08 09:45:26;;;;;;;;;;;8.10;99.90;;;;;;5033138;28;19925;-61
2023/01/08 09:47:53;;;;;;;;;;;8.10;99.90;;;;;;5026464;28;19929;-63
2023/01/08 09:50:23;;;;;;;;;;;8.10;99.90;;;;;;5041681;28;19982;-63
2023/01/08 09:52:49;;;;;;;;;;;8.10;99.90;;;;;;5044469;28;19924;-65
2023/01/08 09:55:16;;;;;;;;;;;8.10;99.90;;;;;;5043631;28;19925;-67
2023/01/08 09:57:43;;;;;;;;;;;8.10;99.90;;;;;;5032298;28;19967;-66
2023/01/08 10:00:13;;;;;;;;;;;8.00;99.90;;;;;;5032439;28;19925;-65
2023/01/08 10:02:40;;;;;;;;;;;8.00;99.90;;;;;;5032376;28;19921;-67
2023/01/08 10:05:11;;;;;;;;;;;8.10;99.90;;;;;;5032117;28;20395;-65
2023/01/08 10:07:39;;;;;;;;;;;8.20;99.90;;;;;;5032027;28;19967;-66
2023/01/08 10:10:06;;;;;;;;;;;8.20;99.90;;;;;;5032163;28;19990;-66
2023/01/08 10:12:33;;;;;;;;;;;8.40;99.90;;;;;;5024684;22;19987;-66
2023/01/08 10:15:01;;;;;;;;;;;8.50;99.90;;;;;;5012132;28;19976;-66
2023/01/08 10:17:30;;;;;;;;;;;8.70;99.90;;;;;;5012110;28;20380;-67
2023/01/08 10:19:57;;;;;;;;;;;8.90;99.90;;;;;;5012402;28;19976;-65
2023/01/08 10:22:24;;;;;;;;;;;9.00;99.90;;;;;;5012512;28;19925;-66
2023/01/08 10:24:52;;;;;;;;;;;9.20;99.90;;;;;;5012430;28;19921;-65
2023/01/08 10:27:20;;;;;;;;;;;9.30;99.90;;;;;;5012161;28;19975;-65
2023/01/08 10:29:47;;;;;;;;;;;9.40;97.50;;;;;;5011972;28;19952;-66
2023/01/08 10:32:15;;;;;;;;;;;9.40;95.90;;;;;;5011967;28;19929;-66
2023/01/08 10:34:43;;;;;;;;;;;9.50;95.30;;;;;;5012549;28;19968;-59
2023/01/08 10:37:30;;;;;;;;;;;9.60;94.30;;;;;;5012136;28;19925;-58
2023/01/08 10:40:03;;;;;;;;;;;9.60;91.10;;;;;;5012885;28;19921;-58
2023/01/08 10:42:33;;;;;;;;;;;9.60;92.00;;;;;;5020681;28;19929;-58
2023/01/08 10:45:02;;;;;;;;;;;9.70;86.20;;;;;;5027186;28;20462;-57
2023/01/08 10:47:30;;;;;;;;;;;9.60;75.50;;;;;;5031648;28;19971;-59
2023/01/08 10:49:58;;;;;;;;;;;9.60;81.00;;;;;;5031927;28;19944;-59
2023/01/08 10:52:26;;;;;;;;;;;9.60;87.60;;;;;;5031770;28;19975;-60
2023/01/08 10:54:52;;;;;;;;;;;9.60;84.10;;;;;;5031801;28;20347;-58
2023/01/08 10:57:24;;;;;;;;;;;9.60;76.70;;;;;;5031795;28;20364;-58
2023/01/08 10:59:51;;;;;;;;;;;9.60;82.30;;;;;;5031755;28;20000;-62
2023/01/08 11:02:21;;;;;;;;;;;9.70;71.80;;;;;;5031308;28;19927;-59
2023/01/08 11:04:50;;;;;;;;;;;9.80;77.80;;;;;;5031517;28;19921;-61
2023/01/08 11:07:20;;;;;;;;;;;9.80;77.10;;;;;;5031443;28;19921;-60
2023/01/08 11:09:47;;;;;;;;;;;9.90;66.20;;;;;;5031400;28;20008;-58
2023/01/08 11:12:30;;;;;;;;;;;9.90;49.80;;;;;;5023457;28;19987;-58
2023/01/08 11:14:57;;;;;;;;;;;10.00;43.50;;;;;;5017400;28;19922;-63
2023/01/08 11:17:24;;;;;;;;;;;10.00;45.70;;;;;;5015875;28;20296;-60
2023/01/08 11:19:51;;;;;;;;;;;10.00;32.50;;;;;;5015412;28;19975;-59
2023/01/08 11:22:18;;;;;;;;;;;9.90;40.10;;;;;;5015406;28;19979;-60
2023/01/08 11:24:45;;;;;;;;;;;9.70;52.20;;;;;;5015710;28;20313;-55
2023/01/08 11:27:15;;;;;;;;;;;9.80;76.80;;;;;;5015422;28;19967;-59
2023/01/08 11:29:46;;;;;;;;;;;9.80;71.10;;;;;;5015777;28;19925;-56
2023/01/08 11:32:25;;;;;;;;;;;9.90;71.60;;;;;;5016530;28;20589;-55
2023/01/08 11:34:56;;;;;;;;;;;9.90;71.90;;;;;;5016400;28;19925;-55
2023/01/08 11:37:25;;;;;;;;;;;10.00;72.50;;;;;;5015365;28;20305;-54
2023/01/08 11:39:52;;;;;;;;;;;10.10;46.80;;;;;;5015872;28;20366;-53
2023/01/08 11:42:27;;;;;;;;;;;10.20;39.60;;;;;;5023731;28;19921;-56
2023/01/08 11:45:02;;;;;;;;;;;10.30;54.10;;;;;;5023139;28;19921;-58
2023/01/08 11:47:33;;;;;;;;;;;10.40;38.70;;;;;;5023205;28;19921;-54
2023/01/08 11:50:05;;;;;;;;;;;10.40;32.50;;;;;;5016026;28;19921;-56
2023/01/08 11:52:35;;;;;;;;;;;10.30;32.80;;;;;;5015438;28;20442;-56
2023/01/08 11:55:15;;;;;;;;;;;10.30;37.50;;;;;;5015100;28;19991;-54
2023/01/08 11:57:46;;;;;;;;;;;10.30;33.30;;;;;;5015082;28;19933;-55
2023/01/08 12:00:22;;;;;;;;;;;10.30;36.50;;;;;;5015109;28;20285;-55
2023/01/08 12:02:51;;;;;;;;;;;10.30;35.90;;;;;;5015148;28;19921;-56
2023/01/08 12:05:22;;;;;;;;;;;10.20;33.60;;;;;;5014952;28;19922;-54
2023/01/08 12:07:54;;;;;;;;;;;10.30;39.30;;;;;;5014517;28;19921;-54
2023/01/08 12:10:23;;;;;;;;;;;10.20;42.40;;;;;;5015277;28;20070;-55
2023/01/08 12:12:53;;;;;;;;;;;10.30;29.50;;;;;;5022929;28;19921;-53
2023/01/08 12:15:25;;;;;;;;;;;10.30;34.10;;;;;;5032757;28;19987;-58
2023/01/08 12:18:07;;;;;;;;;;;10.30;38.90;;;;;;5034018;28;19964;-54
2023/01/08 12:20:36;;;;;;;;;;;10.30;29.80;;;;;;5034629;28;19921;-57
2023/01/08 12:23:08;;;;;;;;;;;10.30;29.40;;;;;;5034401;28;19925;-56
2023/01/08 12:25:43;;;;;;;;;;;10.30;40.20;;;;;;5029051;28;19933;-60
2023/01/08 12:28:15;;;;;;;;;;;10.40;28.90;;;;;;5020353;28;19975;-61
2023/01/08 12:31:03;;;;;;;;;;;10.40;38.50;;;;;;5034080;28;19921;-64
2023/01/08 12:33:34;;;;;;;;;;;10.40;26.80;;;;;;5034180;28;19967;-63
2023/01/08 12:36:03;;;;;;;;;;;10.40;31.90;;;;;;5033738;28;19967;-58
2023/01/08 12:38:31;;;;;;;;;;;10.40;29.80;;;;;;5033953;28;19921;-61
2023/01/08 12:40:59;;;;;;;;;;;10.30;42.90;;;;;;5033764;28;20321;-60
2023/01/08 12:43:28;;;;;;;;;;;10.30;37.90;;;;;;5022935;28;19924;-62
2023/01/08 12:45:59;;;;;;;;;;;10.30;44.20;;;;;;5013929;28;19929;-64
2023/01/08 12:48:27;;;;;;;;;;;10.20;68.90;;;;;;5012288;28;19980;-63
2023/01/08 12:50:59;;;;;;;;;;;10.20;97.90;;;;;;5013286;28;19977;-62
2023/01/08 12:53:31;;;;;;;;;;;9.90;99.90;;;;;;5014344;28;19929;-64
2023/01/08 12:56:02;;;;;;;;;;;9.30;99.90;;;;;;5013630;28;19922;-57
2023/01/08 12:58:31;;;;;;;;;;;9.10;99.90;;;;;;5013910;28;19976;-60
2023/01/08 13:01:05;;;;;;;;;;;8.80;99.90;;;;;;5013658;28;19967;-61
2023/01/08 13:03:32;;;;;;;;;;;8.60;99.90;;;;;;5013816;28;19922;-61
2023/01/08 13:06:10;;;;;;;;;;;8.50;99.90;;;;;;5013591;28;19968;-60
2023/01/08 13:08:37;;;;;;;;;;;8.30;99.90;;;;;;5013538;28;19926;-55
2023/01/08 13:11:04;;;;;;;;;;;8.40;99.90;;;;;;5013735;28;20333;-61
2023/01/08 13:13:32;;;;;;;;;;;8.40;99.90;;;;;;5024837;28;19991;-60
2023/01/08 13:16:18;;;;;;;;;;;8.50;99.90;;;;;;5033125;28;19921;-62
2023/01/08 13:18:51;;;;;;;;;;;8.60;99.90;;;;;;5032958;28;19925;-57
2023/01/08 13:21:18;;;;;;;;;;;8.60;99.90;;;;;;5033218;28;20366;-60
2023/01/08 13:23:44;;;;;;;;;;;8.70;99.90;;;;;;5033257;28;19967;-61
2023/01/08 13:26:11;;;;;;;;;;;8.80;99.90;;;;;;5033159;28;19921;-60
2023/01/08 13:28:42;;;;;;;;;;;8.70;99.90;;;;;;5033031;28;19974;-58
2023/01/08 13:31:25;;;;;;;;;;;8.80;99.90;;;;;;5032956;28;19943;-60
2023/01/08 13:33:52;;;;;;;;;;;8.80;99.90;;;;;;5032413;28;19925;-61
2023/01/08 13:36:20;;;;;;;;;;;8.80;99.90;;;;;;5023041;28;20276;-60
2023/01/08 13:38:59;;;;;;;;;;;8.80;99.90;;;;;;5012584;28;19928;-59
2023/01/08 13:41:26;;;;;;;;;;;8.80;99.90;;;;;;5015146;28;20351;-61
2023/01/08 13:43:57;;;;;;;;;;;8.90;99.90;;;;;;5024257;28;19921;-60
2023/01/08 13:46:25;;;;;;;;;;;8.90;99.90;;;;;;5032794;28;20342;-60
2023/01/08 13:48:55;;;;;;;;;;;8.90;99.90;;;;;;5032441;28;19921;-59
2023/01/08 13:51:28;;;;;;;;;;;8.90;99.90;;;;;;5020606;28;19921;-59
2023/01/08 13:53:54;;;;;;;;;;;9.00;99.90;;;;;;5008807;28;20040;-59
2023/01/08 13:56:21;;;;;;;;;;;8.90;99.90;;;;;;5016507;28;19925;-61
2023/01/08 13:58:52;;;;;;;;;;;8.90;99.90;;;;;;5012493;28;19925;-58
2023/01/08 14:01:19;;;;;;;;;;;8.90;99.90;;;;;;5012492;28;19921;-61
2023/01/08 14:03:48;;;;;;;;;;;8.90;99.90;;;;;;5012722;28;19921;-58
2023/01/08 14:06:16;;;;;;;;;;;9.00;99.90;;;;;;5012439;28;19963;-64
2023/01/08 14:08:49;;;;;;;;;;;9.00;99.90;;;;;;5023225;28;19921;-65
2023/01/08 14:11:15;;;;;;;;;;;9.00;97.60;;;;;;5015127;28;20323;-59
2023/01/08 14:13:42;;;;;;;;;;;9.00;90.30;;;;;;5024495;28;19921;-62
2023/01/08 14:16:11;;;;;;;;;;;8.90;86.50;;;;;;5032077;28;19921;-60
2023/01/08 14:18:39;;;;;;;;;;;9.00;90.60;;;;;;5032598;28;19967;-61
2023/01/08 14:21:08;;;;;;;;;;;8.90;90.70;;;;;;5032039;28;19921;-66
2023/01/08 14:23:37;;;;;;;;;;;8.90;85.60;;;;;;5032427;28;20370;-58
2023/01/08 14:26:05;;;;;;;;;;;8.80;91.00;;;;;;5031726;28;20450;-61
2023/01/08 14:28:31;;;;;;;;;;;8.80;96.10;;;;;;5032485;28;19951;-61
2023/01/08 14:30:58;;;;;;;;;;;8.80;94.40;;;;;;5032347;28;19990;-61
2023/01/08 14:33:28;;;;;;;;;;;8.70;99.90;;;;;;5032353;28;19920;-60